Time;durP1;ratioP1;P1;durP2;ratioP2;P2;SDS_P1;SDS_P2;PMS_P1;PMS_P2;Temp;Humidity;BMP_temperature;BMP_pressure;BME280_temperature;BME280_humidity;BME280_pressure;Samples;Min_cycle;Max_cycle;Signal;HPM_P1;HPM_P2
2023/04/21 02:43:02;;;;;;;35.80;24.25;;;7.60;93.10;;;;;;6155412;22;86839;31
2023/04/21 02:46:21;;;;;;;40.43;26.50;;;7.60;93.10;;;;;;6146378;22;86872;31
2023/04/21 03:02:17;;;;;;;42.90;27.95;;;7.50;93.20;;;;;;6153507;22;87156;31
2023/04/21 03:08:56;;;;;;;48.72;27.95;;;7.30;93.30;;;;;;6123865;22;87078;31
2023/04/21 03:23:45;;;;;;;42.58;27.13;;;6.90;93.50;;;;;;6134666;22;87522;31
2023/04/21 03:27:05;;;;;;;45.53;27.83;;;6.80;93.50;;;;;;6120324;22;87106;31
2023/04/21 03:32:44;;;;;;;39.45;26.13;;;6.70;94.00;;;;;;6159906;22;87210;31
2023/04/21 03:35:43;;;;;;;46.50;28.25;;;6.60;93.50;;;;;;6109148;22;86699;31
2023/04/21 03:41:12;;;;;;;48.95;29.60;;;6.50;94.30;;;;;;6167816;22;87075;31
2023/04/21 03:44:06;;;;;;;48.15;28.17;;;6.50;94.50;;;;;;6114318;22;87300;31
2023/04/21 03:47:04;;;;;;;52.90;29.75;;;6.40;94.20;;;;;;6047491;22;89638;31
2023/04/21 03:50:13;;;;;;;49.33;28.05;;;6.40;94.70;;;;;;6069963;22;84912;-92
2023/04/21 03:52:59;;;;;;;50.42;29.55;;;6.40;94.50;;;;;;6113580;22;84955;-92
2023/04/21 03:55:49;;;;;;;49.70;28.98;;;6.30;95.00;;;;;;5942186;23;85806;-91
2023/04/21 03:58:55;;;;;;;49.88;29.88;;;6.30;94.90;;;;;;5945595;23;86260;-90
2023/04/21 04:01:23;;;;;;;51.15;30.27;;;6.20;95.00;;;;;;5927184;23;84943;-91
2023/04/21 04:03:52;;;;;;;53.88;30.75;;;6.20;95.10;;;;;;5887453;23;85018;-90
2023/04/21 04:06:39;;;;;;;47.72;28.63;;;6.20;95.20;;;;;;5846965;24;86223;-91
2023/04/21 04:09:44;;;;;;;47.30;28.15;;;6.10;95.00;;;;;;5827782;24;85147;-91
2023/04/21 04:12:10;;;;;;;51.50;30.83;;;6.10;95.00;;;;;;5809140;24;84934;-93
2023/04/21 04:14:36;;;;;;;52.60;31.38;;;6.10;95.00;;;;;;5836234;24;85475;-93
2023/04/21 04:17:02;;;;;;;58.15;31.77;;;6.00;95.20;;;;;;5830933;24;85588;-89
2023/04/21 04:19:40;;;;;;;55.97;30.80;;;6.00;95.30;;;;;;5822536;24;86344;-92
2023/04/21 04:22:29;;;;;;;55.88;31.75;;;6.00;95.10;;;;;;5751192;24;84872;-92
2023/04/21 04:24:58;;;;;;;57.03;31.83;;;6.00;95.50;;;;;;5723272;24;85021;-91
2023/04/21 04:27:44;;;;;;;58.42;32.83;;;6.00;95.50;;;;;;5678971;24;85709;-91
2023/04/21 04:30:12;;;;;;;51.30;30.85;;;5.90;95.40;;;;;;5724781;24;85195;-92
2023/04/21 04:33:19;;;;;;;57.95;32.80;;;5.90;95.40;;;;;;5707961;24;85060;-94
2023/04/21 04:36:07;;;;;;;61.45;32.67;;;5.90;95.40;;;;;;5746857;24;86532;-89
2023/04/21 04:38:52;;;;;;;57.33;33.70;;;5.80;95.40;;;;;;5798446;24;90018;-91
2023/04/21 04:41:42;;;;;;;57.28;33.33;;;5.80;95.50;;;;;;5707966;24;89451;-91
2023/04/21 04:44:30;;;;;;;59.08;31.27;;;5.80;95.50;;;;;;5743631;24;85086;-91
2023/04/21 04:46:58;;;;;;;59.75;34.08;;;5.80;95.40;;;;;;5705807;24;85111;-90
2023/04/21 04:49:38;;;;;;;59.45;34.15;;;5.70;95.40;;;;;;5668102;24;87875;-93
2023/04/21 04:52:25;;;;;;;61.10;33.42;;;5.70;95.60;;;;;;5649961;25;86289;-93
2023/04/21 04:54:52;;;;;;;59.80;32.58;;;5.70;95.50;;;;;;5648639;24;85172;-90
2023/04/21 04:57:40;;;;;;;62.22;34.45;;;5.70;95.70;;;;;;5660038;24;85140;-92
2023/04/21 05:00:10;;;;;;;50.13;29.83;;;5.70;95.80;;;;;;5660860;25;85921;-93
2023/04/21 05:02:37;;;;;;;62.35;34.08;;;5.60;95.50;;;;;;5663040;24;85596;-91
2023/04/21 05:05:26;;;;;;;60.08;32.97;;;5.60;95.70;;;;;;5642419;25;84948;-93
2023/04/21 05:07:53;;;;;;;58.03;32.33;;;5.60;95.80;;;;;;5622348;25;85157;-92
2023/04/21 05:10:21;;;;;;;65.18;34.90;;;5.60;95.70;;;;;;5616459;25;85851;-92
2023/04/21 05:13:09;;;;;;;61.40;33.97;;;5.60;95.80;;;;;;5637995;24;85256;-91
2023/04/21 05:15:34;;;;;;;62.15;35.20;;;5.60;95.70;;;;;;5629527;25;85374;-92
2023/04/21 05:18:00;;;;;;;70.18;36.03;;;5.60;95.80;;;;;;5609013;25;85077;-91
2023/04/21 05:20:27;;;;;;;63.90;34.60;;;5.60;95.90;;;;;;5616516;25;85074;-92
2023/04/21 05:22:55;;;;;;;66.97;36.20;;;5.60;96.00;;;;;;5644429;24;85643;-93
2023/04/21 05:25:27;;;;;;;69.10;37.33;;;5.70;96.10;;;;;;5714191;24;85099;-91
2023/04/21 05:27:53;;;;;;;64.55;32.88;;;5.70;96.10;;;;;;5693008;24;85481;-93
2023/04/21 05:30:39;;;;;;;67.03;36.10;;;5.70;95.80;;;;;;5692976;24;86013;-90
2023/04/21 05:33:30;;;;;;;69.78;36.00;;;5.80;96.00;;;;;;5719557;24;85374;-92
2023/04/21 05:36:36;;;;;;;70.28;36.13;;;5.80;95.80;;;;;;5702932;24;85019;-92
2023/04/21 05:39:03;;;;;;;60.45;33.80;;;5.80;96.00;;;;;;5681393;24;84932;-90
2023/04/21 05:41:33;;;;;;;59.05;32.53;;;5.80;95.90;;;;;;5672574;24;85960;-91
2023/04/21 05:44:17;;;;;;;64.88;35.45;;;5.90;95.70;;;;;;5753307;24;85154;-91
2023/04/21 05:46:56;;;;;;;70.72;37.10;;;5.90;95.90;;;;;;5737961;24;85040;-90
2023/04/21 05:50:03;;;;;;;67.43;36.00;;;5.90;95.90;;;;;;5761026;24;84956;-88
2023/04/21 05:53:09;;;;;;;66.65;34.92;;;6.00;95.90;;;;;;5769235;24;85586;-92
2023/04/21 05:55:39;;;;;;;72.68;36.75;;;6.00;95.90;;;;;;5763807;24;85405;-90
2023/04/21 05:58:25;;;;;;;72.68;35.83;;;6.10;96.20;;;;;;5709177;24;85745;-91
2023/04/21 06:00:51;;;;;;;67.32;34.95;;;6.20;96.20;;;;;;5755349;24;86560;-81
2023/04/21 06:03:21;;;;;;;66.70;35.42;;;6.30;96.10;;;;;;5754796;24;87853;-84
2023/04/21 06:06:10;;;;;;;72.55;38.13;;;6.40;96.10;;;;;;5731746;24;85123;-83
2023/04/21 06:12:19;;;;;;;63.08;35.28;;;6.60;96.20;;;;;;5685377;24;86111;-82
2023/04/21 06:15:28;;;;;;;62.58;35.22;;;6.80;96.10;;;;;;5729331;24;85731;-83
2023/04/21 06:23:00;;;;;;;63.05;34.38;;;7.10;95.60;;;;;;6147985;22;85383;-80
2023/04/21 06:28:00;;;;;;;55.95;32.60;;;7.30;95.20;;;;;;6147502;22;87181;-81
2023/04/21 06:30:26;;;;;;;54.42;32.08;;;7.50;95.00;;;;;;6174418;22;86232;-82
2023/04/21 06:32:51;;;;;;;52.53;30.73;;;7.50;94.80;;;;;;6181571;22;85577;-82
2023/04/21 06:35:19;;;;;;;56.28;32.33;;;7.60;94.50;;;;;;6182574;22;86511;-82
2023/04/21 06:42:55;;;;;;;49.15;29.00;;;8.00;94.30;;;;;;6166739;22;86055;-82
2023/04/21 06:45:21;;;;;;;43.38;26.23;;;8.20;93.50;;;;;;6154990;22;89979;-82
2023/04/21 06:47:47;;;;;;;43.42;27.33;;;8.30;93.20;;;;;;6181594;22;85684;-82
2023/04/21 06:50:13;;;;;;;40.63;26.45;;;8.30;92.60;;;;;;6177330;22;85685;-82
2023/04/21 06:52:50;;;;;;;39.95;24.88;;;8.50;92.70;;;;;;6180642;22;84931;-82
2023/04/21 06:55:16;;;;;;;38.70;25.02;;;8.60;92.40;;;;;;6154634;22;91241;-84
2023/04/21 07:08:13;;;;;;;32.85;19.85;;;9.20;91.00;;;;;;6143455;22;87202;-83
2023/04/21 07:13:16;;;;;;;33.17;21.17;;;9.40;89.90;;;;;;6158565;22;87652;-81
2023/04/21 07:23:54;;;;;;;31.20;20.48;;;9.80;88.10;;;;;;6171241;22;87539;-82
2023/04/21 07:47:12;;;;;;;25.90;17.25;;;10.90;83.90;;;;;;6155108;22;86288;-81
2023/04/21 07:51:21;;;;;;;23.85;17.02;;;11.10;80.70;;;;;;6146625;22;87087;-82
2023/04/21 07:54:45;;;;;;;24.25;16.42;;;11.30;80.40;;;;;;6000573;23;84889;-81
2023/04/21 08:31:23;;;;;;;18.63;13.77;;;13.50;71.80;;;;;;6164693;22;86744;-79
2023/04/21 08:33:49;;;;;;;19.20;14.98;;;13.60;71.20;;;;;;6162233;22;87827;-80
2023/04/21 08:36:15;;;;;;;19.73;14.43;;;13.80;71.30;;;;;;6162128;22;86815;-78
2023/04/21 08:38:43;;;;;;;18.35;14.00;;;14.00;69.70;;;;;;6165512;22;86169;-80
2023/04/21 08:41:14;;;;;;;23.17;13.88;;;14.20;69.30;;;;;;6154725;22;86474;-82
2023/04/21 08:44:18;;;;;;;20.73;14.05;;;14.40;69.10;;;;;;6166819;22;86316;-81
2023/04/21 08:47:04;;;;;;;20.02;13.77;;;14.60;68.20;;;;;;6118423;23;86188;-81
2023/04/21 08:57:18;;;;;;;21.60;13.38;;;15.30;64.40;;;;;;6146957;22;87613;-82
2023/04/21 09:02:19;;;;;;;20.33;13.73;;;15.60;65.80;;;;;;6176049;22;86993;-81
2023/04/21 09:04:56;;;;;;;14.93;12.07;;;15.70;61.70;;;;;;6185677;22;86458;-82
2023/04/21 09:12:49;;;;;;;13.65;11.07;;;16.20;62.60;;;;;;6140829;22;87945;-81
2023/04/21 09:17:56;;;;;;;12.88;10.82;;;16.60;61.50;;;;;;6134623;22;88065;-78
2023/04/21 09:20:23;;;;;;;13.02;10.02;;;16.80;60.40;;;;;;6124995;23;86539;-78
2023/04/21 09:22:55;;;;;;;15.00;11.40;;;17.00;58.50;;;;;;6130413;23;85739;-79
2023/04/21 09:25:22;;;;;;;13.10;10.52;;;17.20;56.10;;;;;;6126479;23;86424;-78
2023/04/21 09:27:48;;;;;;;15.82;10.90;;;17.30;59.10;;;;;;6125178;22;87466;-78
2023/04/21 09:30:18;;;;;;;12.30;10.18;;;17.50;56.40;;;;;;6128080;23;86279;-78
2023/04/21 09:32:44;;;;;;;13.48;10.50;;;17.60;57.10;;;;;;6128978;23;88769;-78
2023/04/21 09:38:53;;;;;;;12.05;9.82;;;17.80;57.90;;;;;;6128126;23;85847;-78
2023/04/21 09:41:19;;;;;;;11.15;9.43;;;18.00;56.40;;;;;;6130055;23;86155;-79
2023/04/21 09:43:44;;;;;;;13.98;11.30;;;18.10;57.30;;;;;;6128323;23;86515;-79
2023/04/21 09:46:11;;;;;;;13.27;10.80;;;18.40;56.20;;;;;;6128269;23;85645;-79
2023/04/21 09:48:42;;;;;;;14.43;11.25;;;18.50;56.30;;;;;;6150549;22;89965;-78
2023/04/21 09:51:08;;;;;;;15.88;11.45;;;18.90;56.40;;;;;;6129683;22;85994;-79
2023/04/21 09:53:38;;;;;;;17.00;11.27;;;19.00;55.50;;;;;;6128613;23;86095;-80
2023/04/21 09:56:15;;;;;;;17.45;14.35;;;19.30;57.20;;;;;;6136784;22;87790;-80
2023/04/21 09:58:47;;;;;;;16.55;13.93;;;19.40;53.20;;;;;;6138254;23;88781;-81
2023/04/21 10:01:14;;;;;;;20.05;13.20;;;19.40;54.00;;;;;;6140440;22;86131;-79
2023/04/21 10:03:42;;;;;;;15.95;12.32;;;19.50;52.60;;;;;;6135763;23;86447;-79
2023/04/21 10:06:08;;;;;;;15.65;12.40;;;19.60;54.20;;;;;;6133430;22;86515;-78
2023/04/21 10:08:36;;;;;;;14.43;11.88;;;19.80;52.70;;;;;;6135665;22;85946;-79
2023/04/21 10:11:04;;;;;;;13.27;10.85;;;20.10;51.70;;;;;;6132689;23;85838;-79
2023/04/21 10:13:31;;;;;;;17.73;12.98;;;20.40;51.50;;;;;;6133549;23;85931;-79
2023/04/21 10:16:07;;;;;;;13.60;11.95;;;20.50;50.70;;;;;;6137670;23;87643;-80
2023/04/21 10:21:38;;;;;;;15.40;12.75;;;20.90;52.40;;;;;;6146212;22;86058;-81
2023/04/21 10:24:06;;;;;;;18.45;14.00;;;21.10;51.70;;;;;;6176799;22;87947;-81
2023/04/21 10:26:37;;;;;;;15.02;12.45;;;21.20;49.80;;;;;;6176790;22;87966;-80
2023/04/21 10:29:05;;;;;;;15.73;11.55;;;21.30;51.40;;;;;;6163943;22;86757;-80
2023/04/21 10:31:49;;;;;;;14.60;11.13;;;21.40;51.30;;;;;;6135960;22;86235;-81
2023/04/21 10:34:17;;;;;;;11.95;10.02;;;21.40;49.50;;;;;;6164236;22;86538;-80
2023/04/21 10:36:50;;;;;;;10.88;9.55;;;21.40;48.10;;;;;;6163688;22;86179;-80
2023/04/21 10:39:30;;;;;;;;;;;21.40;47.50;;;;;;6163057;22;86605;-79
2023/04/21 10:42:23;;;;;;;13.38;9.93;;;21.40;46.00;;;;;;6168107;22;86242;-80
2023/04/21 10:44:58;;;;;;;12.67;8.90;;;21.70;49.00;;;;;;6091613;22;86325;-80
2023/04/21 10:47:42;;;;;;;10.73;9.07;;;21.90;47.30;;;;;;6167405;22;86261;-80
2023/04/21 11:08:25;;;;;;;11.80;7.05;;;22.80;45.70;;;;;;6179074;22;87249;-81
2023/04/21 11:10:54;;;;;;;11.48;7.30;;;23.00;45.50;;;;;;6139034;22;86562;-79
2023/04/21 11:16:05;;;;;;;;;;;23.40;44.90;;;;;;6181029;22;90627;-81
2023/04/21 11:18:42;;;;;;;7.82;6.05;;;23.40;42.50;;;;;;6178577;22;86449;-80
2023/04/21 11:21:34;;;;;;;7.10;6.40;;;23.30;43.50;;;;;;6173862;22;85955;-80
2023/04/21 11:24:00;;;;;;;6.70;5.90;;;23.40;43.00;;;;;;6111049;23;89178;-78
2023/04/21 11:26:34;;;;;;;7.65;6.45;;;23.50;42.50;;;;;;6126028;23;86162;-78
2023/04/21 11:29:01;;;;;;;7.20;6.43;;;23.70;43.80;;;;;;6125384;23;86947;-79
2023/04/21 11:31:29;;;;;;;7.63;6.20;;;24.00;42.00;;;;;;6124954;23;85999;-79
2023/04/21 11:33:55;;;;;;;7.93;5.63;;;24.10;42.00;;;;;;6125808;23;85701;-83
2023/04/21 11:36:21;;;;;;;6.72;6.00;;;24.20;42.70;;;;;;6125952;23;86051;-82
2023/04/21 11:39:09;;;;;;;7.70;5.95;;;24.50;41.70;;;;;;6127479;23;87518;-86
2023/04/21 11:41:39;;;;;;;5.55;4.97;;;24.90;41.30;;;;;;6126684;23;89391;-86
2023/04/21 11:44:06;;;;;;;5.65;4.68;;;24.90;40.50;;;;;;6101837;23;86257;-86
2023/04/21 11:46:32;;;;;;;6.70;4.85;;;24.90;38.70;;;;;;6101535;23;86172;-86
2023/04/21 11:49:11;;;;;;;5.03;4.53;;;25.00;40.20;;;;;;6101422;23;88913;-87
2023/04/21 11:51:38;;;;;;;6.78;5.00;;;25.30;39.70;;;;;;6099789;23;89700;-87
2023/04/21 11:54:05;;;;;;;4.97;4.47;;;25.50;39.30;;;;;;6100510;23;85914;-86
2023/04/21 11:56:36;;;;;;;6.50;5.63;;;25.60;40.40;;;;;;6100373;23;85910;-87
2023/04/21 11:59:12;;;;;;;5.78;4.60;;;26.00;39.20;;;;;;6092859;23;89465;-85
2023/04/21 12:01:46;;;;;;;7.07;4.95;;;26.10;37.90;;;;;;6064783;23;87987;-86
2023/04/21 12:04:23;;;;;;;7.40;5.88;;;26.00;39.50;;;;;;6067004;23;86498;-89
2023/04/21 12:07:00;;;;;;;5.10;4.63;;;26.00;39.60;;;;;;6067460;23;86180;-86
2023/04/21 12:09:26;;;;;;;5.22;4.72;;;26.00;38.00;;;;;;6096510;23;89720;-86
2023/04/21 12:11:54;;;;;;;5.82;4.45;;;26.10;38.90;;;;;;6096461;23;89764;-85
2023/04/21 12:14:21;;;;;;;4.43;4.03;;;26.30;39.80;;;;;;6095843;23;86354;-84
2023/04/21 12:16:57;;;;;;;7.47;4.82;;;26.60;38.60;;;;;;6095734;23;86558;-84
2023/04/21 12:19:35;;;;;;;7.40;4.97;;;26.80;34.80;;;;;;6095943;23;87969;-86
2023/04/21 12:22:05;;;;;;;6.38;4.85;;;26.90;38.70;;;;;;6095954;23;87077;-86
2023/04/21 12:24:31;;;;;;;5.78;5.03;;;27.20;38.60;;;;;;6096150;23;86102;-85
2023/04/21 12:26:56;;;;;;;6.70;3.58;;;27.20;35.10;;;;;;6096705;23;86334;-85
2023/04/21 12:29:22;;;;;;;4.60;3.20;;;27.30;35.40;;;;;;6095834;23;87284;-89
2023/04/21 12:31:48;;;;;;;5.97;3.67;;;27.30;33.70;;;;;;6100703;23;88415;-89
2023/04/21 12:37:38;;;;;;;5.47;3.50;;;26.80;36.10;;;;;;6155289;22;85849;-90
2023/04/21 12:40:04;;;;;;;3.80;3.25;;;26.60;39.10;;;;;;6131767;22;90688;-88
2023/04/21 12:42:30;;;;;;;4.20;3.05;;;26.50;37.90;;;;;;6131879;22;89602;-88
2023/04/21 12:44:56;;;;;;;3.45;2.50;;;26.40;37.30;;;;;;6160511;22;85724;-85
2023/04/21 12:47:22;;;;;;;3.03;2.45;;;26.40;38.80;;;;;;6159446;22;86282;-85
2023/04/21 12:49:47;;;;;;;3.92;3.03;;;26.30;35.90;;;;;;6132091;22;88850;-85
2023/04/21 12:52:13;;;;;;;5.57;3.08;;;25.80;36.70;;;;;;6095377;23;88214;-86
2023/04/21 12:54:39;;;;;;;3.22;2.67;;;25.60;38.50;;;;;;6071021;23;87264;-85
2023/04/21 12:57:05;;;;;;;4.68;3.33;;;25.60;40.10;;;;;;6096993;23;86393;-86
2023/04/21 12:59:31;;;;;;;6.72;3.97;;;25.40;40.20;;;;;;6071270;23;89631;-85
2023/04/21 13:02:09;;;;;;;6.47;5.60;;;25.30;39.80;;;;;;6096287;23;86381;-87
2023/04/21 13:04:35;;;;;;;6.45;4.70;;;25.00;39.80;;;;;;6071544;23;86109;-86
2023/04/21 13:07:01;;;;;;;5.68;4.30;;;24.90;40.10;;;;;;6071370;23;86241;-86
2023/04/21 13:09:26;;;;;;;5.20;4.28;;;25.00;40.00;;;;;;6071741;23;88977;-85
2023/04/21 13:11:52;;;;;;;6.05;3.88;;;25.00;40.60;;;;;;6072078;23;89066;-86
2023/04/21 13:14:18;;;;;;;5.45;3.50;;;25.10;39.60;;;;;;6072270;23;85880;-87
2023/04/21 13:16:44;;;;;;;4.20;3.50;;;25.30;37.10;;;;;;6095570;23;86248;-86
2023/04/21 13:19:10;;;;;;;6.70;4.50;;;25.20;39.60;;;;;;6070883;23;89185;-84
2023/04/21 13:21:35;;;;;;;5.95;4.10;;;25.50;39.20;;;;;;6071078;23;89703;-87
2023/04/21 13:24:01;;;;;;;8.05;4.38;;;25.80;38.30;;;;;;6120926;22;86246;-86
2023/04/21 13:26:31;;;;;;;7.00;3.83;;;25.70;37.50;;;;;;6133287;22;85911;-86
2023/04/21 13:28:56;;;;;;;5.13;4.55;;;25.50;37.90;;;;;;6132674;22;89971;-85
2023/04/21 13:31:22;;;;;;;5.88;4.20;;;25.20;38.60;;;;;;6159720;22;86071;-87
2023/04/21 13:33:49;;;;;;;4.97;4.07;;;25.10;37.90;;;;;;6132262;22;88958;-87
2023/04/21 13:36:15;;;;;;;4.78;3.65;;;25.60;39.00;;;;;;6133429;22;85664;-85
2023/04/21 13:38:41;;;;;;;5.45;4.38;;;25.90;38.50;;;;;;6160096;22;86985;-87
2023/04/21 13:41:07;;;;;;;4.20;3.80;;;26.00;35.10;;;;;;6132301;22;89229;-84
2023/04/21 13:43:33;;;;;;;4.90;3.75;;;26.00;38.20;;;;;;6133169;22;86951;-86
2023/04/21 13:45:59;;;;;;;4.97;3.50;;;25.90;36.00;;;;;;6134507;22;86233;-87
2023/04/21 13:48:25;;;;;;;4.85;3.95;;;25.70;38.50;;;;;;6133106;22;88304;-86
2023/04/21 13:50:51;;;;;;;5.07;3.70;;;25.50;37.70;;;;;;6134206;22;89885;-86
2023/04/21 13:53:17;;;;;;;4.50;4.00;;;25.30;37.40;;;;;;6132729;22;85809;-87
2023/04/21 13:55:43;;;;;;;5.38;4.45;;;25.40;39.60;;;;;;6133411;22;86264;-86
2023/04/21 13:58:10;;;;;;;5.90;4.82;;;25.30;39.60;;;;;;6133561;22;88936;-87
2023/04/21 14:00:36;;;;;;;4.75;4.35;;;25.10;38.50;;;;;;6134874;22;88454;-87
2023/04/21 14:03:03;;;;;;;5.47;3.92;;;24.90;40.00;;;;;;6134177;22;86299;-88
2023/04/21 14:05:29;;;;;;;4.80;3.53;;;24.70;39.50;;;;;;6132881;22;85963;-88
2023/04/21 14:07:55;;;;;;;4.32;3.75;;;24.70;41.00;;;;;;6132252;22;88965;-87
2023/04/21 14:10:20;;;;;;;4.93;4.35;;;25.20;40.50;;;;;;6132720;22;89131;-87
2023/04/21 14:12:47;;;;;;;5.57;3.88;;;25.40;39.70;;;;;;6132640;22;86120;-86
2023/04/21 14:15:13;;;;;;;6.32;4.70;;;25.30;40.40;;;;;;6096017;23;86204;-86
2023/04/21 14:17:39;;;;;;;4.95;4.45;;;25.20;39.80;;;;;;6072310;23;89987;-87
2023/04/21 14:20:08;;;;;;;6.95;5.00;;;25.20;41.10;;;;;;6074734;23;89356;-88
2023/04/21 14:22:34;;;;;;;6.68;4.25;;;25.00;39.90;;;;;;6078153;23;86129;-89
2023/04/21 14:25:00;;;;;;;8.45;4.28;;;24.80;39.90;;;;;;6074160;23;86041;-87
2023/04/21 14:27:25;;;;;;;5.20;3.72;;;24.60;40.60;;;;;;6071288;23;89766;-87
2023/04/21 14:29:51;;;;;;;4.88;3.95;;;24.20;42.00;;;;;;6076755;23;87428;-87
2023/04/21 14:32:19;;;;;;;7.15;4.05;;;24.10;43.20;;;;;;6073159;23;86046;-84
2023/04/21 14:34:45;;;;;;;6.18;4.80;;;23.80;42.80;;;;;;6076114;23;85857;-83
2023/04/21 14:37:34;;;;;;;4.97;4.47;;;23.40;42.40;;;;;;6084558;23;89802;-81
2023/04/21 14:40:00;;;;;;;6.10;4.93;;;23.30;42.20;;;;;;6129071;22;87088;-81
2023/04/21 14:55:33;;;;;;;4.93;3.95;;;22.30;43.60;;;;;;6176500;22;87844;-80
2023/04/21 15:08:20;;;;;;;6.57;3.83;;;21.60;45.00;;;;;;6153121;22;91243;-78
2023/04/21 15:10:46;;;;;;;6.10;3.58;;;21.50;45.90;;;;;;6172263;22;86456;-79
2023/04/21 15:19:05;;;;;;;3.53;1.75;;;20.30;45.40;;;;;;6179236;22;87375;-81
2023/04/21 15:27:08;;;;;;;2.22;1.20;;;19.30;43.80;;;;;;6173758;22;85595;-80
2023/04/21 15:42:33;;;;;;;3.55;1.88;;;17.30;48.80;;;;;;6170939;22;87010;-81
2023/04/21 16:00:44;;;;;;;3.17;1.30;;;15.30;56.60;;;;;;6171374;22;87185;-79
2023/04/21 16:16:07;;;;;;;2.63;1.70;;;19.90;58.80;;;;;;6152209;22;85222;-80
2023/04/21 16:18:35;;;;;;;3.00;2.00;;;21.40;55.00;;;;;;6157714;22;85592;-81
2023/04/21 16:21:00;;;;;;;2.63;1.42;;;22.50;51.10;;;;;;6160705;22;86402;-81
2023/04/21 16:23:26;;;;;;;1.60;1.50;;;23.50;47.00;;;;;;6127100;22;87838;-80
2023/04/21 16:28:56;;;;;;;2.47;1.33;;;24.50;44.50;;;;;;6162997;22;86486;-82
2023/04/21 16:31:22;;;;;;;1.92;1.15;;;25.30;43.20;;;;;;6072952;23;88908;-83
2023/04/21 16:33:48;;;;;;;2.30;1.30;;;26.00;41.60;;;;;;6067326;23;86644;-86
2023/04/21 16:36:14;;;;;;;2.25;1.27;;;26.30;39.50;;;;;;6066517;23;86193;-81
2023/04/21 17:03:19;;;;;;;1.40;1.30;;;28.00;34.10;;;;;;6068247;23;86326;-84
2023/04/21 17:05:45;;;;;;;2.95;1.42;;;27.90;35.40;;;;;;6068502;23;86247;-84
2023/04/21 17:08:11;;;;;;;2.88;1.33;;;27.70;35.60;;;;;;6092745;23;86993;-84
2023/04/21 17:10:36;;;;;;;2.72;1.73;;;27.90;35.40;;;;;;6127253;23;90350;-82
2023/04/21 17:13:03;;;;;;;2.95;1.30;;;28.00;36.10;;;;;;6125076;23;86466;-81
2023/04/21 17:15:29;;;;;;;1.25;1.15;;;28.10;36.30;;;;;;6126028;23;86066;-82
2023/04/21 17:17:54;;;;;;;2.88;1.75;;;28.10;34.90;;;;;;6102138;23;90196;-87
2023/04/21 17:20:20;;;;;;;2.78;1.30;;;28.00;34.70;;;;;;6101052;23;88372;-82
2023/04/21 17:22:46;;;;;;;3.50;1.88;;;28.00;35.50;;;;;;6101093;23;86037;-82
2023/04/21 17:25:12;;;;;;;3.28;1.88;;;27.80;35.10;;;;;;6126409;23;86252;-81
2023/04/21 17:27:39;;;;;;;3.75;2.00;;;27.40;35.90;;;;;;6125505;23;87736;-81
2023/04/21 17:30:07;;;;;;;3.88;2.00;;;27.00;35.80;;;;;;6101749;23;88458;-91
2023/04/21 17:32:33;;;;;;;5.10;2.42;;;26.70;36.10;;;;;;6101627;23;86312;-86
2023/04/21 17:34:59;;;;;;;2.35;2.15;;;26.30;36.50;;;;;;6126890;23;86355;-86
2023/04/21 17:37:25;;;;;;;3.92;2.30;;;25.50;36.70;;;;;;6102382;23;89735;-87
2023/04/21 18:06:31;;;;;;;2.90;2.28;;;22.10;43.90;;;;;;6160636;22;87766;-83
2023/04/21 18:09:34;;;;;;;2.85;2.10;;;21.50;44.70;;;;;;6153016;22;85459;-84
2023/04/21 18:12:23;;;;;;;2.97;2.30;;;20.90;47.60;;;;;;6081379;22;85650;-83
2023/04/21 18:15:50;;;;;;;4.15;2.60;;;20.30;48.00;;;;;;5935106;23;85909;-84
2023/04/21 18:18:40;;;;;;;2.53;1.92;;;19.70;49.40;;;;;;5956836;23;85602;-84
2023/04/21 18:21:27;;;;;;;4.70;2.85;;;19.10;51.70;;;;;;5934761;23;86111;-84
2023/04/21 18:23:57;;;;;;;3.08;2.65;;;18.70;52.50;;;;;;5926841;23;85694;-85
2023/04/21 18:30:17;;;;;;;3.03;2.50;;;17.90;54.30;;;;;;5930048;23;84943;-84
2023/04/21 18:32:48;;;;;;;3.50;2.63;;;17.50;55.40;;;;;;5956976;23;89987;-83
2023/04/21 18:35:20;;;;;;;2.55;2.33;;;17.20;56.60;;;;;;5902142;23;86474;-84
2023/04/21 18:54:14;;;;;;;5.00;2.53;;;13.80;60.50;;;;;;6184012;22;86054;-81
2023/04/21 18:57:03;;;;;;;5.28;2.60;;;13.50;62.50;;;;;;6189707;22;89736;-81
2023/04/21 19:02:14;;;;;;;8.23;2.22;;;12.90;64.50;;;;;;6173599;22;86179;-81
2023/04/21 19:05:01;;;;;;;6.25;3.20;;;12.90;68.00;;;;;;6130327;22;86615;-81
2023/04/21 19:07:56;;;;;;;3.65;2.72;;;12.80;67.20;;;;;;6067681;23;86574;-82
2023/04/21 19:10:43;;;;;;;3.60;2.83;;;12.70;68.60;;;;;;5970708;23;84921;-81
2023/04/21 19:26:03;;;;;;;4.95;2.70;;;11.60;83.40;;;;;;6165309;22;87909;-81
2023/04/21 19:28:31;;;;;;;6.53;2.78;;;11.40;82.50;;;;;;6104903;23;87925;-81
2023/04/21 19:30:57;;;;;;;5.93;3.15;;;11.40;89.40;;;;;;6120951;23;85751;-81
2023/04/21 23:00:33;;;;;;;11.85;7.30;;;7.60;94.30;;;;;;6208201;22;87377;-83
2023/04/21 23:04:23;;;;;;;10.35;7.72;;;7.60;94.10;;;;;;6132543;22;84984;-85
2023/04/21 23:14:40;;;;;;;14.82;9.18;;;7.60;94.50;;;;;;5988018;23;86000;-85
2023/04/21 23:18:32;;;;;;;14.10;9.10;;;7.50;94.60;;;;;;5956489;23;87014;-84
